PWSweather.com
Personal Weather Stations
Station Observations
MEREWETHER
MerewetherAU

MerewetherAU

Lat: -32.945, Lon: 151.756

Elevation: 180

Station Type: Davis Vantage Pro

www.merewether.com

High Low Average
Temperature 64.0°F17.8°F 51.5°F10.8°F 56.9°F13.8°F
Dew Point 51.8°F11.0°F 39.6°F4.2°F 46.6°F8.1°F
Winds 12.0 mph -19.3 mph - Calm Calm 3.3 mph 5.3 mph
Wind Gusts 15.0 mph24.1 mph 1.0 mph1.6 mph 8.7 mph14.0 mph
Humidity 85% 52% 69%
Pressure 30.35 in1027.80 in 30.24 in1024.00 in -
Precipitation 0.00 in0.00 in - -
Hour Temp Dew Point Humidity Winds Wind Gusts Pressure Precip Precip Rate Daily Precip Total
12:07 AM 53.3°F11.8°C 48.9°F9.4°C 85% 6.0 mph SW9.7 kmh SW 8.0 mph12.9 kmh 30.25 in1024.4 mb 0.00 in0.0 mm 0.00 in0.0 mm 0.00 in0.0 mm
12:17 AM 53.4°F11.9°C 49.0°F9.4°C 85% 3.0 mph SW4.8 kmh SW 8.0 mph12.9 kmh 30.25 in1024.4 mb 0.00 in0.0 mm 0.00 in0.0 mm 0.00 in0.0 mm
12:27 AM 53.6°F12.0°C 49.2°F9.6°C 85% Calm Calm 4.0 mph6.4 kmh 30.25 in1024.4 mb 0.00 in0.0 mm 0.00 in0.0 mm 0.00 in0.0 mm
12:37 AM 53.6°F12.0°C 49.2°F9.6°C 85% 1.0 mph SW1.6 kmh SW 6.0 mph9.7 kmh 30.25 in1024.4 mb 0.00 in0.0 mm 0.00 in0.0 mm 0.00 in0.0 mm
12:47 AM 53.5°F11.9°C 49.1°F9.5°C 85% 3.0 mph SW4.8 kmh SW 6.0 mph9.7 kmh 30.25 in1024.4 mb 0.00 in0.0 mm 0.00 in0.0 mm 0.00 in0.0 mm
12:57 AM 53.6°F12.0°C 49.2°F9.6°C 85% 3.0 mph SW4.8 kmh SW 6.0 mph9.7 kmh 30.25 in1024.4 mb 0.00 in0.0 mm 0.00 in0.0 mm 0.00 in0.0 mm
01:07 AM 53.7°F12.1°C 49.3°F9.6°C 85% 2.0 mph SW3.2 kmh SW 9.0 mph14.5 kmh 30.25 in1024.4 mb 0.00 in0.0 mm 0.00 in0.0 mm 0.00 in0.0 mm
01:17 AM 53.9°F12.2°C 49.5°F9.7°C 85% 2.0 mph SW3.2 kmh SW 9.0 mph14.5 kmh 30.24 in1024.0 mb 0.00 in0.0 mm 0.00 in0.0 mm 0.00 in0.0 mm
01:27 AM 54.0°F12.2°C 49.6°F9.8°C 85% 2.0 mph SW3.2 kmh SW 7.0 mph11.3 kmh 30.25 in1024.4 mb 0.00 in0.0 mm 0.00 in0.0 mm 0.00 in0.0 mm
01:37 AM 54.3°F12.4°C 49.9°F9.9°C 85% 4.0 mph SW6.4 kmh SW 9.0 mph14.5 kmh 30.25 in1024.4 mb 0.00 in0.0 mm 0.00 in0.0 mm 0.00 in0.0 mm
01:47 AM 54.6°F12.6°C 50.2°F10.1°C 85% 6.0 mph S9.7 kmh S 9.0 mph14.5 kmh 30.25 in1024.4 mb 0.00 in0.0 mm 0.00 in0.0 mm 0.00 in0.0 mm
01:57 AM 54.7°F12.6°C 50.0°F10.0°C 84% 6.0 mph SW9.7 kmh SW 13.0 mph20.9 kmh 30.25 in1024.4 mb 0.00 in0.0 mm 0.00 in0.0 mm 0.00 in0.0 mm
02:07 AM 54.3°F12.4°C 48.9°F9.4°C 82% 6.0 mph SW9.7 kmh SW 13.0 mph20.9 kmh 30.25 in1024.4 mb 0.00 in0.0 mm 0.00 in0.0 mm 0.00 in0.0 mm
02:17 AM 54.3°F12.4°C 47.6°F8.7°C 78% 6.0 mph SW9.7 kmh SW 12.0 mph19.3 kmh 30.25 in1024.4 mb 0.00 in0.0 mm 0.00 in0.0 mm 0.00 in0.0 mm
02:27 AM 54.3°F12.4°C 46.5°F8.1°C 75% 6.0 mph SW9.7 kmh SW 12.0 mph19.3 kmh 30.24 in1024.0 mb 0.00 in0.0 mm 0.00 in0.0 mm 0.00 in0.0 mm
02:37 AM 54.2°F12.3°C 45.4°F7.4°C 72% 8.0 mph S12.9 kmh S 12.0 mph19.3 kmh 30.24 in1024.0 mb 0.00 in0.0 mm 0.00 in0.0 mm 0.00 in0.0 mm
02:47 AM 54.1°F12.3°C 44.9°F7.2°C 71% 3.0 mph SSW4.8 kmh SSW 12.0 mph19.3 kmh 30.24 in1024.0 mb 0.00 in0.0 mm 0.00 in0.0 mm 0.00 in0.0 mm
02:57 AM 54.2°F12.3°C 45.7°F7.6°C 73% 12.0 mph S19.3 kmh S 12.0 mph19.3 kmh 30.24 in1024.0 mb 0.00 in0.0 mm 0.00 in0.0 mm 0.00 in0.0 mm
03:07 AM 54.3°F12.4°C 46.5°F8.1°C 75% 4.0 mph S6.4 kmh S 15.0 mph24.1 kmh 30.24 in1024.0 mb 0.00 in0.0 mm 0.00 in0.0 mm 0.00 in0.0 mm
03:17 AM 53.9°F12.2°C 45.4°F7.4°C 73% 5.0 mph SSW8.0 kmh SSW 15.0 mph24.1 kmh 30.24 in1024.0 mb 0.00 in0.0 mm 0.00 in0.0 mm 0.00 in0.0 mm
03:27 AM 53.7°F12.1°C 44.5°F6.9°C 71% 4.0 mph SSW6.4 kmh SSW 12.0 mph19.3 kmh 30.24 in1024.0 mb 0.00 in0.0 mm 0.00 in0.0 mm 0.00 in0.0 mm
03:37 AM 53.8°F12.1°C 43.9°F6.6°C 69% 5.0 mph SW8.0 kmh SW 13.0 mph20.9 kmh 30.24 in1024.0 mb 0.00 in0.0 mm 0.00 in0.0 mm 0.00 in0.0 mm
03:47 AM 53.8°F12.1°C 43.1°F6.2°C 67% 3.0 mph SW4.8 kmh SW 13.0 mph20.9 kmh 30.24 in1024.0 mb 0.00 in0.0 mm 0.00 in0.0 mm 0.00 in0.0 mm
03:57 AM 53.8°F12.1°C 42.3°F5.7°C 65% 3.0 mph WSW4.8 kmh WSW 12.0 mph19.3 kmh 30.24 in1024.0 mb 0.00 in0.0 mm 0.00 in0.0 mm 0.00 in0.0 mm
04:07 AM 53.7°F12.1°C 42.2°F5.7°C 65% 2.0 mph S3.2 kmh S 15.0 mph24.1 kmh 30.24 in1024.0 mb 0.00 in0.0 mm 0.00 in0.0 mm 0.00 in0.0 mm
04:17 AM 53.5°F11.9°C 42.0°F5.6°C 65% 6.0 mph S9.7 kmh S 15.0 mph24.1 kmh 30.24 in1024.0 mb 0.00 in0.0 mm 0.00 in0.0 mm 0.00 in0.0 mm
04:27 AM 53.4°F11.9°C 41.9°F5.5°C 65% 7.0 mph SW11.3 kmh SW 15.0 mph24.1 kmh 30.24 in1024.0 mb 0.00 in0.0 mm 0.00 in0.0 mm 0.00 in0.0 mm
04:37 AM 53.2°F11.8°C 41.3°F5.2°C 64% 2.0 mph SSW3.2 kmh SSW 15.0 mph24.1 kmh 30.25 in1024.4 mb 0.00 in0.0 mm 0.00 in0.0 mm 0.00 in0.0 mm
04:47 AM 52.9°F11.6°C 41.5°F5.3°C 65% 3.0 mph WSW4.8 kmh WSW 11.0 mph17.7 kmh 30.25 in1024.4 mb 0.00 in0.0 mm 0.00 in0.0 mm 0.00 in0.0 mm
04:57 AM 52.7°F11.5°C 41.3°F5.2°C 65% 3.0 mph SW4.8 kmh SW 11.0 mph17.7 kmh 30.25 in1024.4 mb 0.00 in0.0 mm 0.00 in0.0 mm 0.00 in0.0 mm
05:07 AM 52.6°F11.4°C 41.2°F5.1°C 65% 4.0 mph SW6.4 kmh SW 11.0 mph17.7 kmh 30.25 in1024.4 mb 0.00 in0.0 mm 0.00 in0.0 mm 0.00 in0.0 mm
05:17 AM 52.4°F11.3°C 41.0°F5.0°C 65% 6.0 mph SW9.7 kmh SW 8.0 mph12.9 kmh 30.25 in1024.4 mb 0.00 in0.0 mm 0.00 in0.0 mm 0.00 in0.0 mm
05:27 AM 52.1°F11.2°C 40.7°F4.8°C 65% 2.0 mph SW3.2 kmh SW 12.0 mph19.3 kmh 30.26 in1024.7 mb 0.00 in0.0 mm 0.00 in0.0 mm 0.00 in0.0 mm
05:37 AM 51.9°F11.1°C 40.5°F4.7°C 65% 3.0 mph SW4.8 kmh SW 12.0 mph19.3 kmh 30.26 in1024.7 mb 0.00 in0.0 mm 0.00 in0.0 mm 0.00 in0.0 mm
05:47 AM 51.9°F11.1°C 40.1°F4.5°C 64% 5.0 mph SW8.0 kmh SW 11.0 mph17.7 kmh 30.27 in1025.1 mb 0.00 in0.0 mm 0.00 in0.0 mm 0.00 in0.0 mm
05:57 AM 51.8°F11.0°C 40.0°F4.4°C 64% 3.0 mph SW4.8 kmh SW 9.0 mph14.5 kmh 30.27 in1025.1 mb 0.00 in0.0 mm 0.00 in0.0 mm 0.00 in0.0 mm
06:07 AM 51.6°F10.9°C 39.8°F4.3°C 64% 7.0 mph SW11.3 kmh SW 11.0 mph17.7 kmh 30.27 in1025.1 mb 0.00 in0.0 mm 0.00 in0.0 mm 0.00 in0.0 mm
06:17 AM 51.6°F10.9°C 39.8°F4.3°C 64% 6.0 mph SW9.7 kmh SW 11.0 mph17.7 kmh 30.27 in1025.1 mb 0.00 in0.0 mm 0.00 in0.0 mm 0.00 in0.0 mm
06:27 AM 51.6°F10.9°C 39.8°F4.3°C 64% 4.0 mph SW6.4 kmh SW 9.0 mph14.5 kmh 30.28 in1025.4 mb 0.00 in0.0 mm 0.00 in0.0 mm 0.00 in0.0 mm
06:37 AM 51.7°F10.9°C 39.9°F4.4°C 64% 3.0 mph SSW4.8 kmh SSW 9.0 mph14.5 kmh 30.28 in1025.4 mb 0.00 in0.0 mm 0.00 in0.0 mm 0.00 in0.0 mm
06:47 AM 51.8°F11.0°C 40.0°F4.4°C 64% 5.0 mph S8.0 kmh S 9.0 mph14.5 kmh 30.29 in1025.7 mb 0.00 in0.0 mm 0.00 in0.0 mm 0.00 in0.0 mm
06:57 AM 51.8°F11.0°C 39.6°F4.2°C 63% 3.0 mph SW4.8 kmh SW 12.0 mph19.3 kmh 30.29 in1025.7 mb 0.00 in0.0 mm 0.00 in0.0 mm 0.00 in0.0 mm
07:07 AM 52.0°F11.1°C 40.2°F4.6°C 64% 5.0 mph SW8.0 kmh SW 12.0 mph19.3 kmh 30.29 in1025.7 mb 0.00 in0.0 mm 0.00 in0.0 mm 0.00 in0.0 mm
07:17 AM 52.5°F11.4°C 39.9°F4.4°C 62% 8.0 mph SSW12.9 kmh SSW 12.0 mph19.3 kmh 30.30 in1026.1 mb 0.00 in0.0 mm 0.00 in0.0 mm 0.00 in0.0 mm
07:27 AM 52.8°F11.6°C 39.7°F4.3°C 61% 5.0 mph WSW8.0 kmh WSW 12.0 mph19.3 kmh 30.30 in1026.1 mb 0.00 in0.0 mm 0.00 in0.0 mm 0.00 in0.0 mm
07:37 AM 53.0°F11.7°C 39.9°F4.4°C 61% 2.0 mph NW3.2 kmh NW 11.0 mph17.7 kmh 30.31 in1026.4 mb 0.00 in0.0 mm 0.00 in0.0 mm 0.00 in0.0 mm
07:47 AM 52.6°F11.4°C 40.4°F4.7°C 63% 2.0 mph NW3.2 kmh NW 8.0 mph12.9 kmh 30.31 in1026.4 mb 0.00 in0.0 mm 0.00 in0.0 mm 0.00 in0.0 mm
07:57 AM 51.9°F11.1°C 40.9°F4.9°C 66% Calm Calm 5.0 mph8.0 kmh 30.32 in1026.8 mb 0.00 in0.0 mm 0.00 in0.0 mm 0.00 in0.0 mm
08:07 AM 51.8°F11.0°C 41.6°F5.3°C 68% Calm Calm 5.0 mph8.0 kmh 30.32 in1026.8 mb 0.00 in0.0 mm 0.00 in0.0 mm 0.00 in0.0 mm
08:17 AM 51.6°F10.9°C 42.1°F5.6°C 70% Calm Calm 3.0 mph4.8 kmh 30.32 in1026.8 mb 0.00 in0.0 mm 0.00 in0.0 mm 0.00 in0.0 mm
08:27 AM 51.5°F10.8°C 42.4°F5.8°C 71% Calm Calm 4.0 mph6.4 kmh 30.32 in1026.8 mb 0.00 in0.0 mm 0.00 in0.0 mm 0.00 in0.0 mm
08:37 AM 52.3°F11.3°C 43.5°F6.4°C 72% 1.0 mph NW1.6 kmh NW 1.0 mph1.6 kmh 30.32 in1026.8 mb 0.00 in0.0 mm 0.00 in0.0 mm 0.00 in0.0 mm
08:47 AM 52.9°F11.6°C 43.8°F6.6°C 71% Calm Calm 4.0 mph6.4 kmh 30.32 in1026.8 mb 0.00 in0.0 mm 0.00 in0.0 mm 0.00 in0.0 mm
08:57 AM 53.3°F11.8°C 44.1°F6.7°C 71% Calm Calm 3.0 mph4.8 kmh 30.32 in1026.8 mb 0.00 in0.0 mm 0.00 in0.0 mm 0.00 in0.0 mm
09:07 AM 54.8°F12.7°C 44.8°F7.1°C 69% 1.0 mph WSW1.6 kmh WSW 5.0 mph8.0 kmh 30.33 in1027.1 mb 0.00 in0.0 mm 0.00 in0.0 mm 0.00 in0.0 mm
09:17 AM 56.6°F13.7°C 45.0°F7.2°C 65% 1.0 mph NW1.6 kmh NW 4.0 mph6.4 kmh 30.33 in1027.1 mb 0.00 in0.0 mm 0.00 in0.0 mm 0.00 in0.0 mm
09:27 AM 57.9°F14.4°C 44.1°F6.7°C 60% 1.0 mph WSW1.6 kmh WSW 3.0 mph4.8 kmh 30.33 in1027.1 mb 0.00 in0.0 mm 0.00 in0.0 mm 0.00 in0.0 mm
09:37 AM 59.1°F15.1°C 42.5°F5.8°C 54% 3.0 mph SW4.8 kmh SW 5.0 mph8.0 kmh 30.33 in1027.1 mb 0.00 in0.0 mm 0.00 in0.0 mm 0.00 in0.0 mm
09:47 AM 60.2°F15.7°C 43.0°F6.1°C 53% 3.0 mph SW4.8 kmh SW 4.0 mph6.4 kmh 30.33 in1027.1 mb 0.00 in0.0 mm 0.00 in0.0 mm 0.00 in0.0 mm
09:57 AM 60.7°F15.9°C 43.0°F6.1°C 52% Calm Calm 5.0 mph8.0 kmh 30.33 in1027.1 mb 0.00 in0.0 mm 0.00 in0.0 mm 0.00 in0.0 mm
10:07 AM 60.9°F16.1°C 43.7°F6.5°C 53% 4.0 mph SW6.4 kmh SW 5.0 mph8.0 kmh 30.32 in1026.8 mb 0.00 in0.0 mm 0.00 in0.0 mm 0.00 in0.0 mm
10:17 AM 61.6°F16.4°C 44.3°F6.8°C 53% 3.0 mph SW4.8 kmh SW 5.0 mph8.0 kmh 30.32 in1026.8 mb 0.00 in0.0 mm 0.00 in0.0 mm 0.00 in0.0 mm
10:27 AM 62.2°F16.8°C 44.9°F7.2°C 53% 3.0 mph SW4.8 kmh SW 5.0 mph8.0 kmh 30.32 in1026.8 mb 0.00 in0.0 mm 0.00 in0.0 mm 0.00 in0.0 mm
10:37 AM 63.2°F17.3°C 45.8°F7.7°C 53% 5.0 mph SW8.0 kmh SW 5.0 mph8.0 kmh 30.32 in1026.8 mb 0.00 in0.0 mm 0.00 in0.0 mm 0.00 in0.0 mm
10:47 AM 62.8°F17.1°C 45.9°F7.7°C 54% 3.0 mph SW4.8 kmh SW 6.0 mph9.7 kmh 30.32 in1026.8 mb 0.00 in0.0 mm 0.00 in0.0 mm 0.00 in0.0 mm
10:57 AM 63.2°F17.3°C 46.8°F8.2°C 55% Calm Calm 1.0 mph1.6 kmh 30.31 in1026.4 mb 0.00 in0.0 mm 0.00 in0.0 mm 0.00 in0.0 mm
11:07 AM 63.3°F17.4°C 47.3°F8.5°C 56% 3.0 mph SW4.8 kmh SW 5.0 mph8.0 kmh 30.31 in1026.4 mb 0.00 in0.0 mm 0.00 in0.0 mm 0.00 in0.0 mm
11:17 AM 63.6°F17.6°C 47.6°F8.7°C 56% Calm Calm 6.0 mph9.7 kmh 30.31 in1026.4 mb 0.00 in0.0 mm 0.00 in0.0 mm 0.00 in0.0 mm
11:27 AM 63.7°F17.6°C 47.7°F8.7°C 56% 4.0 mph S6.4 kmh S 8.0 mph12.9 kmh 30.31 in1026.4 mb 0.00 in0.0 mm 0.00 in0.0 mm 0.00 in0.0 mm
11:37 AM 63.4°F17.4°C 47.4°F8.6°C 56% 3.0 mph SSE4.8 kmh SSE 8.0 mph12.9 kmh 30.30 in1026.1 mb 0.00 in0.0 mm 0.00 in0.0 mm 0.00 in0.0 mm
11:47 AM 63.5°F17.5°C 47.5°F8.6°C 56% 4.0 mph SE6.4 kmh SE 6.0 mph9.7 kmh 30.30 in1026.1 mb 0.00 in0.0 mm 0.00 in0.0 mm 0.00 in0.0 mm
11:57 AM 63.0°F17.2°C 47.5°F8.6°C 57% 2.0 mph S3.2 kmh S 6.0 mph9.7 kmh 30.29 in1025.7 mb 0.00 in0.0 mm 0.00 in0.0 mm 0.00 in0.0 mm
12:07 PM 63.0°F17.2°C 47.5°F8.6°C 57% Calm Calm 7.0 mph11.3 kmh 30.29 in1025.7 mb 0.00 in0.0 mm 0.00 in0.0 mm 0.00 in0.0 mm
12:17 PM 63.6°F17.6°C 47.1°F8.4°C 55% 2.0 mph S3.2 kmh S 7.0 mph11.3 kmh 30.28 in1025.4 mb 0.00 in0.0 mm 0.00 in0.0 mm 0.00 in0.0 mm
12:27 PM 64.0°F17.8°C 47.0°F8.3°C 54% Calm Calm 6.0 mph9.7 kmh 30.28 in1025.4 mb 0.00 in0.0 mm 0.00 in0.0 mm 0.00 in0.0 mm
12:37 PM 63.9°F17.7°C 47.4°F8.6°C 55% 4.0 mph S6.4 kmh S 6.0 mph9.7 kmh 30.28 in1025.4 mb 0.00 in0.0 mm 0.00 in0.0 mm 0.00 in0.0 mm
12:47 PM 63.7°F17.6°C 48.2°F9.0°C 57% 6.0 mph SSE9.7 kmh SSE 8.0 mph12.9 kmh 30.27 in1025.1 mb 0.00 in0.0 mm 0.00 in0.0 mm 0.00 in0.0 mm
12:57 PM 63.1°F17.3°C 48.1°F8.9°C 58% 4.0 mph S6.4 kmh S 9.0 mph14.5 kmh 30.27 in1025.1 mb 0.00 in0.0 mm 0.00 in0.0 mm 0.00 in0.0 mm
01:07 PM 63.1°F17.3°C 48.5°F9.2°C 59% 2.0 mph SSE3.2 kmh SSE 9.0 mph14.5 kmh 30.27 in1025.1 mb 0.00 in0.0 mm 0.00 in0.0 mm 0.00 in0.0 mm
01:17 PM 63.0°F17.2°C 48.4°F9.1°C 59% 3.0 mph S4.8 kmh S 8.0 mph12.9 kmh 30.26 in1024.7 mb 0.00 in0.0 mm 0.00 in0.0 mm 0.00 in0.0 mm
01:27 PM 62.6°F17.0°C 48.5°F9.2°C 60% 4.0 mph SSE6.4 kmh SSE 10.0 mph16.1 kmh 30.26 in1024.7 mb 0.00 in0.0 mm 0.00 in0.0 mm 0.00 in0.0 mm
01:37 PM 62.5°F16.9°C 48.0°F8.9°C 59% 7.0 mph S11.3 kmh S 10.0 mph16.1 kmh 30.26 in1024.7 mb 0.00 in0.0 mm 0.00 in0.0 mm 0.00 in0.0 mm
01:47 PM 62.3°F16.8°C 47.8°F8.8°C 59% 5.0 mph S8.0 kmh S 10.0 mph16.1 kmh 30.26 in1024.7 mb 0.00 in0.0 mm 0.00 in0.0 mm 0.00 in0.0 mm
01:57 PM 62.2°F16.8°C 47.7°F8.7°C 59% 8.0 mph S12.9 kmh S 10.0 mph16.1 kmh 30.25 in1024.4 mb 0.00 in0.0 mm 0.00 in0.0 mm 0.00 in0.0 mm
02:07 PM 62.1°F16.7°C 47.6°F8.7°C 59% 5.0 mph S8.0 kmh S 11.0 mph17.7 kmh 30.26 in1024.7 mb 0.00 in0.0 mm 0.00 in0.0 mm 0.00 in0.0 mm
02:17 PM 62.0°F16.7°C 48.4°F9.1°C 61% 5.0 mph S8.0 kmh S 11.0 mph17.7 kmh 30.26 in1024.7 mb 0.00 in0.0 mm 0.00 in0.0 mm 0.00 in0.0 mm
02:27 PM 61.8°F16.6°C 48.2°F9.0°C 61% 3.0 mph S4.8 kmh S 11.0 mph17.7 kmh 30.26 in1024.7 mb 0.00 in0.0 mm 0.00 in0.0 mm 0.00 in0.0 mm
02:37 PM 61.9°F16.6°C 49.6°F9.8°C 64% 5.0 mph S8.0 kmh S 11.0 mph17.7 kmh 30.26 in1024.7 mb 0.00 in0.0 mm 0.00 in0.0 mm 0.00 in0.0 mm
02:47 PM 61.5°F16.4°C 48.8°F9.3°C 63% 9.0 mph S14.5 kmh S 12.0 mph19.3 kmh 30.26 in1024.7 mb 0.00 in0.0 mm 0.00 in0.0 mm 0.00 in0.0 mm
02:57 PM 61.2°F16.2°C 48.9°F9.4°C 64% 5.0 mph S8.0 kmh S 12.0 mph19.3 kmh 30.26 in1024.7 mb 0.00 in0.0 mm 0.00 in0.0 mm 0.00 in0.0 mm
03:07 PM 61.1°F16.2°C 49.7°F9.8°C 66% 5.0 mph S8.0 kmh S 12.0 mph19.3 kmh 30.26 in1024.7 mb 0.00 in0.0 mm 0.00 in0.0 mm 0.00 in0.0 mm
03:17 PM 60.9°F16.1°C 49.5°F9.7°C 66% 5.0 mph S8.0 kmh S 12.0 mph19.3 kmh 30.26 in1024.7 mb 0.00 in0.0 mm 0.00 in0.0 mm 0.00 in0.0 mm
03:27 PM 60.6°F15.9°C 49.2°F9.6°C 66% 5.0 mph S8.0 kmh S 10.0 mph16.1 kmh 30.26 in1024.7 mb 0.00 in0.0 mm 0.00 in0.0 mm 0.00 in0.0 mm
03:37 PM 60.6°F15.9°C 49.2°F9.6°C 66% 6.0 mph S9.7 kmh S 9.0 mph14.5 kmh 30.27 in1025.1 mb 0.00 in0.0 mm 0.00 in0.0 mm 0.00 in0.0 mm
03:47 PM 60.7°F15.9°C 50.1°F10.1°C 68% 5.0 mph S8.0 kmh S 8.0 mph12.9 kmh 30.27 in1025.1 mb 0.00 in0.0 mm 0.00 in0.0 mm 0.00 in0.0 mm
03:57 PM 60.6°F15.9°C 50.8°F10.4°C 70% 4.0 mph SSW6.4 kmh SSW 8.0 mph12.9 kmh 30.27 in1025.1 mb 0.00 in0.0 mm 0.00 in0.0 mm 0.00 in0.0 mm
04:07 PM 60.5°F15.8°C 51.0°F10.6°C 71% 2.0 mph S3.2 kmh S 9.0 mph14.5 kmh 30.27 in1025.1 mb 0.00 in0.0 mm 0.00 in0.0 mm 0.00 in0.0 mm
04:17 PM 60.6°F15.9°C 51.1°F10.6°C 71% 2.0 mph S3.2 kmh S 9.0 mph14.5 kmh 30.27 in1025.1 mb 0.00 in0.0 mm 0.00 in0.0 mm 0.00 in0.0 mm
04:27 PM 60.4°F15.8°C 51.3°F10.7°C 72% 5.0 mph SSE8.0 kmh SSE 12.0 mph19.3 kmh 30.27 in1025.1 mb 0.00 in0.0 mm 0.00 in0.0 mm 0.00 in0.0 mm
04:37 PM 60.2°F15.7°C 51.5°F10.8°C 73% 8.0 mph S12.9 kmh S 12.0 mph19.3 kmh 30.27 in1025.1 mb 0.00 in0.0 mm 0.00 in0.0 mm 0.00 in0.0 mm
04:47 PM 59.8°F15.4°C 51.5°F10.8°C 74% 1.0 mph S1.6 kmh S 9.0 mph14.5 kmh 30.27 in1025.1 mb 0.00 in0.0 mm 0.00 in0.0 mm 0.01 in0.3 mm
04:57 PM 59.4°F15.2°C 51.5°F10.8°C 75% 3.0 mph S4.8 kmh S 7.0 mph11.3 kmh 30.28 in1025.4 mb 0.00 in0.0 mm 0.00 in0.0 mm 0.01 in0.3 mm
05:07 PM 59.3°F15.2°C 51.4°F10.8°C 75% 7.0 mph S11.3 kmh S 10.0 mph16.1 kmh 30.28 in1025.4 mb 0.00 in0.0 mm 0.00 in0.0 mm 0.01 in0.3 mm
05:17 PM 59.3°F15.2°C 51.7°F10.9°C 76% 7.0 mph S11.3 kmh S 10.0 mph16.1 kmh 30.28 in1025.4 mb 0.00 in0.0 mm 0.00 in0.0 mm 0.01 in0.3 mm
05:27 PM 59.4°F15.2°C 51.8°F11.0°C 76% 2.0 mph SW3.2 kmh SW 10.0 mph16.1 kmh 30.28 in1025.4 mb 0.00 in0.0 mm 0.00 in0.0 mm 0.01 in0.3 mm
05:37 PM 59.0°F15.0°C 51.4°F10.8°C 76% 7.0 mph SW11.3 kmh SW 9.0 mph14.5 kmh 30.29 in1025.7 mb 0.00 in0.0 mm 0.00 in0.0 mm 0.01 in0.3 mm
05:47 PM 58.8°F14.9°C 51.2°F10.7°C 76% Calm Calm 9.0 mph14.5 kmh 30.29 in1025.7 mb 0.00 in0.0 mm 0.00 in0.0 mm 0.01 in0.3 mm
05:57 PM 58.5°F14.7°C 51.0°F10.6°C 76% 2.0 mph S3.2 kmh S 9.0 mph14.5 kmh 30.30 in1026.1 mb 0.00 in0.0 mm 0.00 in0.0 mm 0.01 in0.3 mm
06:07 PM 58.3°F14.6°C 50.8°F10.4°C 76% Calm Calm 7.0 mph11.3 kmh 30.30 in1026.1 mb 0.00 in0.0 mm 0.00 in0.0 mm 0.01 in0.3 mm
06:17 PM 58.2°F14.6°C 50.7°F10.4°C 76% 3.0 mph SW4.8 kmh SW 8.0 mph12.9 kmh 30.30 in1026.1 mb 0.00 in0.0 mm 0.00 in0.0 mm 0.01 in0.3 mm
06:27 PM 58.0°F14.4°C 50.5°F10.3°C 76% 5.0 mph SW8.0 kmh SW 11.0 mph17.7 kmh 30.31 in1026.4 mb 0.00 in0.0 mm 0.00 in0.0 mm 0.01 in0.3 mm
06:37 PM 58.0°F14.4°C 50.1°F10.1°C 75% 5.0 mph SSW8.0 kmh SSW 11.0 mph17.7 kmh 30.31 in1026.4 mb 0.00 in0.0 mm 0.00 in0.0 mm 0.01 in0.3 mm
06:47 PM 58.3°F14.6°C 50.4°F10.2°C 75% 2.0 mph SW3.2 kmh SW 9.0 mph14.5 kmh 30.32 in1026.8 mb 0.00 in0.0 mm 0.00 in0.0 mm 0.01 in0.3 mm
06:57 PM 59.0°F15.0°C 50.7°F10.4°C 74% 6.0 mph S9.7 kmh S 11.0 mph17.7 kmh 30.32 in1026.8 mb 0.00 in0.0 mm 0.00 in0.0 mm 0.01 in0.3 mm
07:07 PM 58.9°F14.9°C 49.9°F9.9°C 72% 2.0 mph SW3.2 kmh SW 11.0 mph17.7 kmh 30.33 in1027.1 mb 0.00 in0.0 mm 0.00 in0.0 mm 0.01 in0.3 mm
07:17 PM 58.1°F14.5°C 49.5°F9.7°C 73% 1.0 mph SW1.6 kmh SW 11.0 mph17.7 kmh 30.33 in1027.1 mb 0.00 in0.0 mm 0.00 in0.0 mm 0.01 in0.3 mm
07:27 PM 57.7°F14.3°C 49.1°F9.5°C 73% 2.0 mph SW3.2 kmh SW 10.0 mph16.1 kmh 30.33 in1027.1 mb 0.00 in0.0 mm 0.00 in0.0 mm 0.01 in0.3 mm
07:37 PM 57.4°F14.1°C 49.2°F9.6°C 74% 2.0 mph SW3.2 kmh SW 10.0 mph16.1 kmh 30.33 in1027.1 mb 0.00 in0.0 mm 0.00 in0.0 mm 0.01 in0.3 mm
07:47 PM 57.1°F13.9°C 48.9°F9.4°C 74% 2.0 mph SW3.2 kmh SW 8.0 mph12.9 kmh 30.34 in1027.4 mb 0.00 in0.0 mm 0.00 in0.0 mm 0.01 in0.3 mm
07:57 PM 56.9°F13.8°C 48.7°F9.3°C 74% 2.0 mph SW3.2 kmh SW 8.0 mph12.9 kmh 30.34 in1027.4 mb 0.00 in0.0 mm 0.00 in0.0 mm 0.01 in0.3 mm
08:07 PM 56.6°F13.7°C 48.8°F9.3°C 75% 3.0 mph SW4.8 kmh SW 7.0 mph11.3 kmh 30.34 in1027.4 mb 0.00 in0.0 mm 0.00 in0.0 mm 0.01 in0.3 mm
08:17 PM 56.6°F13.7°C 48.8°F9.3°C 75% 4.0 mph SW6.4 kmh SW 10.0 mph16.1 kmh 30.34 in1027.4 mb 0.00 in0.0 mm 0.00 in0.0 mm 0.01 in0.3 mm
08:27 PM 56.5°F13.6°C 48.7°F9.3°C 75% 3.0 mph SW4.8 kmh SW 10.0 mph16.1 kmh 30.34 in1027.4 mb 0.00 in0.0 mm 0.00 in0.0 mm 0.01 in0.3 mm
08:37 PM 56.4°F13.6°C 48.6°F9.2°C 75% Calm Calm 8.0 mph12.9 kmh 30.34 in1027.4 mb 0.00 in0.0 mm 0.00 in0.0 mm 0.01 in0.3 mm
08:47 PM 56.5°F13.6°C 48.7°F9.3°C 75% 2.0 mph WSW3.2 kmh WSW 8.0 mph12.9 kmh 30.34 in1027.4 mb 0.00 in0.0 mm 0.00 in0.0 mm 0.01 in0.3 mm
08:57 PM 56.4°F13.6°C 48.6°F9.2°C 75% Calm Calm 8.0 mph12.9 kmh 30.35 in1027.8 mb 0.00 in0.0 mm 0.00 in0.0 mm 0.01 in0.3 mm
09:07 PM 56.1°F13.4°C 48.3°F9.1°C 75% 2.0 mph SW3.2 kmh SW 8.0 mph12.9 kmh 30.35 in1027.8 mb 0.00 in0.0 mm 0.00 in0.0 mm 0.01 in0.3 mm
09:17 PM 56.0°F13.3°C 48.5°F9.2°C 76% 4.0 mph WSW6.4 kmh WSW 9.0 mph14.5 kmh 30.35 in1027.8 mb 0.00 in0.0 mm 0.00 in0.0 mm 0.01 in0.3 mm
09:27 PM 55.7°F13.2°C 47.9°F8.8°C 75% 2.0 mph SW3.2 kmh SW 9.0 mph14.5 kmh 30.35 in1027.8 mb 0.00 in0.0 mm 0.00 in0.0 mm 0.01 in0.3 mm
09:37 PM 55.4°F13.0°C 48.0°F8.9°C 76% Calm Calm 6.0 mph9.7 kmh 30.35 in1027.8 mb 0.00 in0.0 mm 0.00 in0.0 mm 0.01 in0.3 mm
09:47 PM 55.2°F12.9°C 47.8°F8.8°C 76% 3.0 mph SW4.8 kmh SW 6.0 mph9.7 kmh 30.35 in1027.8 mb 0.00 in0.0 mm 0.00 in0.0 mm 0.01 in0.3 mm
09:57 PM 55.1°F12.8°C 47.7°F8.7°C 76% 2.0 mph SW3.2 kmh SW 7.0 mph11.3 kmh 30.35 in1027.8 mb 0.00 in0.0 mm 0.00 in0.0 mm 0.01 in0.3 mm
10:07 PM 55.0°F12.8°C 47.6°F8.7°C 76% 3.0 mph SSW4.8 kmh SSW 9.0 mph14.5 kmh 30.35 in1027.8 mb 0.00 in0.0 mm 0.00 in0.0 mm 0.01 in0.3 mm
10:17 PM 54.9°F12.7°C 47.8°F8.8°C 77% 2.0 mph SW3.2 kmh SW 9.0 mph14.5 kmh 30.35 in1027.8 mb 0.00 in0.0 mm 0.00 in0.0 mm 0.01 in0.3 mm
10:27 PM 54.9°F12.7°C 47.8°F8.8°C 77% 5.0 mph SSW8.0 kmh SSW 6.0 mph9.7 kmh 30.35 in1027.8 mb 0.00 in0.0 mm 0.00 in0.0 mm 0.01 in0.3 mm
10:37 PM 54.8°F12.7°C 47.7°F8.7°C 77% 3.0 mph SW4.8 kmh SW 6.0 mph9.7 kmh 30.35 in1027.8 mb 0.00 in0.0 mm 0.00 in0.0 mm 0.01 in0.3 mm
10:47 PM 54.5°F12.5°C 47.1°F8.4°C 76% Calm Calm 5.0 mph8.0 kmh 30.35 in1027.8 mb 0.00 in0.0 mm 0.00 in0.0 mm 0.01 in0.3 mm
10:57 PM 54.3°F12.4°C 47.2°F8.4°C 77% Calm Calm 5.0 mph8.0 kmh 30.35 in1027.8 mb 0.00 in0.0 mm 0.00 in0.0 mm 0.01 in0.3 mm
11:07 PM 54.3°F12.4°C 47.2°F8.4°C 77% 3.0 mph SW4.8 kmh SW 5.0 mph8.0 kmh 30.35 in1027.8 mb 0.00 in0.0 mm 0.00 in0.0 mm 0.01 in0.3 mm
11:17 PM 54.2°F12.3°C 47.1°F8.4°C 77% Calm Calm 8.0 mph12.9 kmh 30.35 in1027.8 mb 0.00 in0.0 mm 0.00 in0.0 mm 0.01 in0.3 mm
11:27 PM 54.3°F12.4°C 47.2°F8.4°C 77% Calm Calm 8.0 mph12.9 kmh 30.35 in1027.8 mb 0.00 in0.0 mm 0.00 in0.0 mm 0.01 in0.3 mm
11:37 PM 54.1°F12.3°C 47.0°F8.3°C 77% Calm Calm 5.0 mph8.0 kmh 30.35 in1027.8 mb 0.00 in0.0 mm 0.00 in0.0 mm 0.01 in0.3 mm
11:47 PM 54.1°F12.3°C 47.0°F8.3°C 77% 1.0 mph SW1.6 kmh SW 7.0 mph11.3 kmh 30.34 in1027.4 mb 0.00 in0.0 mm 0.00 in0.0 mm 0.01 in0.3 mm
11:57 PM 54.3°F12.4°C 47.2°F8.4°C 77% 1.0 mph SW1.6 kmh SW 7.0 mph11.3 kmh 30.34 in1027.4 mb 0.00 in0.0 mm 0.00 in0.0 mm 0.01 in0.3 mm